createdAt,value
2022-08-26T00:03:43.037Z,7.82
2022-08-26T00:09:03.940Z,8.07
2022-08-26T00:14:14.962Z,8.20
2022-08-26T00:19:21.727Z,8.05
2022-08-26T00:24:30.081Z,8.25
2022-08-26T00:29:37.613Z,8.52
2022-08-26T00:34:43.083Z,9.13
2022-08-26T00:39:51.066Z,8.35
2022-08-26T00:44:58.357Z,8.70
2022-08-26T00:50:08.496Z,9.85
2022-08-26T00:55:37.742Z,8.77
2022-08-26T01:00:49.691Z,9.05
2022-08-26T01:06:05.824Z,9.02
2022-08-26T01:11:24.581Z,9.70
2022-08-26T01:16:34.229Z,9.57
2022-08-26T01:21:44.171Z,9.20
2022-08-26T01:27:27.796Z,9.23
2022-08-26T01:39:07.216Z,9.43
2022-08-26T01:45:26.282Z,9.70
2022-08-26T01:50:52.728Z,9.15
2022-08-26T01:56:08.942Z,11.25
2022-08-26T02:01:30.288Z,9.70
2022-08-26T02:06:36.281Z,9.70
2022-08-26T02:11:43.317Z,9.40
2022-08-26T02:16:54.844Z,9.30
2022-08-26T02:22:03.520Z,10.27
2022-08-26T02:27:09.598Z,9.90
2022-08-26T02:32:18.751Z,9.95
2022-08-26T02:37:41.873Z,9.80
2022-08-26T02:42:56.056Z,10.02
2022-08-26T02:53:55.804Z,10.27
2022-08-26T02:59:05.086Z,10.93
2022-08-26T03:04:36.124Z,10.32
2022-08-26T03:10:01.808Z,10.50
2022-08-26T03:15:26.056Z,10.77
2022-08-26T03:25:41.024Z,9.52
2022-08-26T03:31:15.358Z,10.43
2022-08-26T03:42:40.494Z,10.63
2022-08-26T03:48:02.232Z,10.60
2022-08-26T03:53:17.236Z,10.15
2022-08-26T03:58:31.840Z,10.93
2022-08-26T04:03:49.654Z,10.85
2022-08-26T04:08:57.770Z,10.13
2022-08-26T06:26:56.428Z,9.32
2022-08-26T08:31:56.500Z,4.75
2022-08-26T08:37:40.792Z,4.47
2022-08-26T08:48:27.861Z,4.40
2022-08-26T08:53:39.429Z,4.93
2022-08-26T08:59:05.019Z,4.10
2022-08-26T09:04:51.787Z,3.85
2022-08-26T09:10:02.749Z,3.70
2022-08-26T09:15:11.261Z,3.70
2022-08-26T09:20:24.074Z,4.07
2022-08-26T09:25:29.730Z,4.18
2022-08-26T09:30:37.986Z,5.03
2022-08-26T09:35:48.998Z,3.85
2022-08-26T09:40:59.563Z,3.05
2022-08-26T09:46:17.978Z,3.05
2022-08-26T09:51:34.906Z,4.05
2022-08-26T09:56:43.628Z,3.80
2022-08-26T10:01:49.031Z,2.83
2022-08-26T10:07:03.397Z,4.50
2022-08-26T10:12:15.802Z,2.58
2022-08-26T10:17:28.217Z,3.22
2022-08-26T10:22:43.979Z,3.40
2022-08-26T10:28:04.992Z,3.92
2022-08-26T10:33:12.641Z,2.95
2022-08-26T10:38:29.281Z,2.95
2022-08-26T10:43:51.926Z,3.22
2022-08-26T10:49:06.507Z,3.20
2022-08-26T10:54:24.725Z,2.78
2022-08-26T10:59:46.196Z,2.72
2022-08-26T11:05:27.967Z,2.38
2022-08-26T11:11:20.222Z,3.33
2022-08-26T11:16:56.299Z,2.10
2022-08-26T11:28:48.523Z,2.03
2022-08-26T11:40:54.599Z,2.22
2022-08-26T11:59:10.770Z,1.55
2022-08-26T13:05:13.571Z,1.98
2022-08-26T14:40:45.155Z,4.63
2022-08-26T14:46:42.573Z,2.22
2022-08-26T14:57:34.369Z,2.13
2022-08-26T15:49:07.142Z,2.33
2022-08-26T16:06:08.544Z,2.17
2022-08-26T16:16:57.594Z,2.58
2022-08-26T16:28:12.507Z,2.28
2022-08-26T16:33:57.824Z,2.10
2022-08-26T16:39:08.511Z,4.30
2022-08-26T16:44:19.053Z,2.50
2022-08-26T16:49:36.810Z,2.42
2022-08-26T16:55:22.988Z,3.13
2022-08-26T17:01:08.060Z,2.70
2022-08-26T17:06:20.253Z,2.78
2022-08-26T17:11:39.092Z,2.33
2022-08-26T17:16:51.434Z,3.95
2022-08-26T17:22:02.171Z,4.18
2022-08-26T17:27:35.697Z,2.78
2022-08-26T17:32:54.378Z,2.40
2022-08-26T17:38:16.870Z,1.80
2022-08-26T17:43:23.612Z,2.33
2022-08-26T18:00:26.438Z,2.17
2022-08-26T18:05:43.117Z,2.08
2022-08-26T18:17:24.030Z,3.90
2022-08-26T18:29:00.463Z,2.60
2022-08-26T18:39:32.614Z,2.75
2022-08-26T18:52:29.038Z,4.38
2022-08-26T18:58:00.578Z,4.20
2022-08-26T19:03:15.583Z,3.22
2022-08-26T19:08:24.428Z,6.85
2022-08-26T19:13:33.383Z,6.80
2022-08-26T19:36:52.209Z,7.72
2022-08-26T19:41:57.542Z,6.18
2022-08-26T19:47:06.586Z,3.75
2022-08-26T19:52:30.015Z,4.03
2022-08-26T19:57:40.283Z,3.72
2022-08-26T20:02:58.650Z,4.15
2022-08-26T20:08:11.042Z,4.05
2022-08-26T20:13:42.992Z,4.38
2022-08-26T20:19:57.622Z,4.90
2022-08-26T20:25:39.917Z,3.95
2022-08-26T20:30:48.891Z,4.95
2022-08-26T20:35:59.781Z,4.72
2022-08-26T20:41:05.226Z,4.78
2022-08-26T20:46:18.128Z,4.85
2022-08-26T20:51:27.603Z,3.70
2022-08-26T20:56:32.791Z,4.18
2022-08-26T21:01:42.447Z,4.53
2022-08-26T21:06:52.931Z,5.22
2022-08-26T21:11:59.446Z,6.00
2022-08-26T21:17:04.823Z,4.47
2022-08-26T21:22:14.356Z,4.05
2022-08-26T21:27:26.222Z,4.03
2022-08-26T21:32:35.294Z,4.38
2022-08-26T21:37:43.328Z,7.82
2022-08-26T21:42:48.639Z,4.90
2022-08-26T21:47:53.962Z,4.28
2022-08-26T21:53:01.744Z,5.05
2022-08-26T21:58:07.044Z,4.18
2022-08-26T22:03:13.111Z,3.75
2022-08-26T22:08:22.982Z,3.38
2022-08-26T22:13:36.485Z,3.15
2022-08-26T22:18:43.454Z,3.60
2022-08-26T22:23:51.538Z,3.63
2022-08-26T22:34:08.822Z,4.13
2022-08-26T22:39:17.600Z,4.32
2022-08-26T22:44:24.133Z,3.53
2022-08-26T22:54:37.375Z,3.42
2022-08-26T22:59:42.936Z,3.58
2022-08-26T23:04:48.349Z,3.95
2022-08-26T23:09:56.515Z,3.33
2022-08-26T23:15:18.514Z,4.13
2022-08-26T23:20:29.706Z,4.10
2022-08-26T23:25:37.664Z,4.00
2022-08-26T23:30:43.064Z,4.18
2022-08-26T23:35:48.448Z,4.10
2022-08-26T23:40:57.317Z,3.67
2022-08-26T23:46:02.667Z,4.10
2022-08-26T23:51:20.498Z,4.60
2022-08-26T23:56:28.952Z,4.03
